SAVT/REL METAR and TAF weather

Enter ICAO airport designator
Station Type Date Time Source
SAVT METAR 2022/08/08 14:30 UTC NOAA

SAVT 081430Z 29002KT 0800 FG OVC004 05/05 Q1031


Station Type Date Time Source
SAVT Decoded METAR 2022/08/08 14:30 UTC NOAA

Trelew Aerodrome, Argentina (SAVT) 43-12S 065-16W 43M
Aug 08, 2022 - 10:30 AM EDT / 2022.08.08 1430 UTC
Wind: from the WNW (290 degrees) at 2 MPH (2 KT):0
Visibility: less than 1 mile:0
Sky conditions: overcast
Weather: fog
Temperature: 41 F (5 C)
Dew Point: 41 F (5 C)
Relative Humidity: 100%
Pressure (altimeter): 30.45 in. Hg (1031 hPa)
ob: SAVT 081430Z 29002KT 0800 FG OVC004 05/05 Q1031
cycle: 14

Station Type Date Time Source
SAVT TAF 2022/08/07 00:12 UTC NOAA

TAF SAVT 072300Z 0800/0824 VRB05KT 9999 -RA OVC020 TX10/0818Z TN05/0800Z
BECMG 0816/0818 34010KT NSW SCT020 SCT030
BECMG 0821/0823 CAVOK

Example: see airport list